Time;durP1;ratioP1;P1;durP2;ratioP2;P2;SDS_P1;SDS_P2;PMS_P1;PMS_P2;Temp;Humidity;BMP_temperature;BMP_pressure;BME280_temperature;BME280_humidity;BME280_pressure;Samples;Min_cycle;Max_cycle;Signal;HPM_P1;HPM_P2
2021/11/16 00:00:55;;;;;;;18.80;10.87;;;;;;;;;;5038740;28;20808;-72
2021/11/16 00:03:23;;;;;;;16.13;10.23;;;;;;;;;;5037909;28;20516;-72
2021/11/16 00:05:50;;;;;;;20.73;10.13;;;;;;;;;;5038179;28;20498;-72
2021/11/16 00:08:18;;;;;;;20.60;9.43;;;;;;;;;;5038493;28;20512;-72
2021/11/16 00:10:46;;;;;;;17.07;10.90;;;;;;;;;;5037885;28;20501;-71
2021/11/16 00:13:17;;;;;;;18.87;10.60;;;;;;;;;;5038316;28;20516;-72
2021/11/16 00:15:46;;;;;;;18.07;10.80;;;;;;;;;;5037702;28;20768;-72
2021/11/16 00:18:16;;;;;;;19.23;11.03;;;;;;;;;;5037832;28;20888;-72
2021/11/16 00:20:45;;;;;;;21.40;10.40;;;;;;;;;;5037113;28;20565;-72
2021/11/16 00:23:17;;;;;;;18.10;10.63;;;;;;;;;;5038115;28;20734;-72
2021/11/16 00:25:45;;;;;;;18.17;10.93;;;;;;;;;;5037637;28;20580;-72
2021/11/16 00:28:13;;;;;;;18.57;11.97;;;;;;;;;;5038408;28;20527;-72
2021/11/16 00:30:42;;;;;;;17.73;10.77;;;;;;;;;;5037516;28;20466;-72
2021/11/16 00:33:10;;;;;;;20.03;10.57;;;;;;;;;;5038986;28;20454;-72
2021/11/16 00:35:39;;;;;;;18.73;9.63;;;;;;;;;;5037694;28;20473;-72
2021/11/16 00:38:07;;;;;;;18.67;11.00;;;;;;;;;;5037061;28;20470;-72
2021/11/16 00:40:35;;;;;;;18.40;10.13;;;;;;;;;;5038251;28;20454;-72
2021/11/16 00:43:07;;;;;;;16.20;9.50;;;;;;;;;;5038117;28;20845;-72
2021/11/16 00:45:35;;;;;;;18.30;11.23;;;;;;;;;;5037411;28;20484;-72
2021/11/16 00:48:05;;;;;;;14.93;9.93;;;;;;;;;;5037895;28;20462;-72
2021/11/16 00:50:33;;;;;;;15.33;9.90;;;;;;;;;;5037818;28;20847;-72
2021/11/16 00:53:01;;;;;;;22.27;10.10;;;;;;;;;;5037620;28;20805;-72
2021/11/16 00:55:28;;;;;;;18.60;10.27;;;;;;;;;;5038449;28;20469;-72
2021/11/16 00:57:56;;;;;;;18.47;10.70;;;;;;;;;;5037671;28;20465;-72
2021/11/16 01:00:24;;;;;;;19.37;10.43;;;;;;;;;;5037551;28;20459;-72
2021/11/16 01:02:52;;;;;;;16.60;10.27;;;;;;;;;;5038656;28;20467;-71
2021/11/16 01:05:21;;;;;;;16.03;9.53;;;;;;;;;;5037347;28;20536;-72
2021/11/16 01:07:49;;;;;;;19.17;9.97;;;;;;;;;;5038206;28;20458;-72
2021/11/16 01:10:18;;;;;;;21.33;11.20;;;;;;;;;;5038222;28;20458;-72
2021/11/16 01:12:46;;;;;;;16.77;9.60;;;;;;;;;;5037232;28;20789;-72
2021/11/16 01:15:14;;;;;;;18.20;9.70;;;;;;;;;;5037784;28;20457;-72
2021/11/16 01:17:42;;;;;;;19.00;9.70;;;;;;;;;;5037621;28;20720;-72
2021/11/16 01:20:11;;;;;;;19.13;11.13;;;;;;;;;;5037921;28;20807;-72
2021/11/16 01:22:40;;;;;;;18.30;10.37;;;;;;;;;;5037363;28;20463;-72
2021/11/16 01:25:10;;;;;;;19.30;12.67;;;;;;;;;;5038190;28;20540;-72
2021/11/16 01:27:38;;;;;;;18.47;10.13;;;;;;;;;;5037151;28;20557;-72
2021/11/16 01:30:07;;;;;;;19.20;9.30;;;;;;;;;;5037421;28;20481;-72
2021/11/16 01:32:38;;;;;;;15.67;9.50;;;;;;;;;;5037709;28;20454;-72
2021/11/16 01:35:07;;;;;;;17.90;10.50;;;;;;;;;;5036820;28;20458;-71
2021/11/16 01:37:35;;;;;;;13.47;8.67;;;;;;;;;;5037599;28;20466;-71
2021/11/16 01:40:05;;;;;;;19.67;11.20;;;;;;;;;;5037476;28;20540;-71
2021/11/16 01:42:33;;;;;;;22.70;11.77;;;;;;;;;;5036786;28;20973;-71
2021/11/16 01:45:01;;;;;;;16.80;11.40;;;;;;;;;;5037373;28;20478;-71
2021/11/16 01:47:28;;;;;;;16.47;10.23;;;;;;;;;;5036602;28;20506;-71
2021/11/16 01:49:57;;;;;;;18.10;10.37;;;;;;;;;;5036648;28;20524;-71
2021/11/16 01:52:25;;;;;;;16.87;9.57;;;;;;;;;;5037604;28;20470;-71
2021/11/16 01:54:52;;;;;;;16.87;9.30;;;;;;;;;;5037875;28;20603;-71
2021/11/16 01:57:22;;;;;;;18.50;10.13;;;;;;;;;;5036758;28;20712;-71
2021/11/16 01:59:51;;;;;;;19.23;9.40;;;;;;;;;;5037997;28;20468;-71
2021/11/16 02:02:19;;;;;;;19.00;11.07;;;;;;;;;;5037420;28;20569;-71
2021/11/16 02:04:47;;;;;;;22.77;10.67;;;;;;;;;;5038416;28;20739;-71
2021/11/16 02:07:14;;;;;;;20.47;11.70;;;;;;;;;;5038442;28;20454;-70
2021/11/16 02:09:43;;;;;;;23.47;13.93;;;;;;;;;;5037326;28;20528;-72
2021/11/16 02:12:11;;;;;;;19.57;11.23;;;;;;;;;;5038253;28;20466;-71
2021/11/16 02:14:40;;;;;;;20.07;12.20;;;;;;;;;;5038081;28;20456;-72
2021/11/16 02:17:08;;;;;;;25.83;11.80;;;;;;;;;;5037920;28;20459;-72
2021/11/16 02:19:38;;;;;;;18.47;11.77;;;;;;;;;;5038130;28;20458;-71
2021/11/16 02:22:07;;;;;;;24.67;10.57;;;;;;;;;;5037167;28;20450;-72
2021/11/16 02:24:35;;;;;;;21.97;11.43;;;;;;;;;;5037471;28;20477;-72
2021/11/16 02:27:03;;;;;;;21.03;13.90;;;;;;;;;;5037730;28;20792;-71
2021/11/16 02:29:30;;;;;;;21.30;12.53;;;;;;;;;;5036777;28;20796;-72
2021/11/16 02:32:00;;;;;;;20.40;11.80;;;;;;;;;;5037468;28;20858;-71
2021/11/16 02:34:28;;;;;;;19.67;11.67;;;;;;;;;;5037172;28;20469;-72
2021/11/16 02:36:56;;;;;;;24.83;13.00;;;;;;;;;;5037946;28;20478;-72
2021/11/16 02:39:25;;;;;;;23.13;12.73;;;;;;;;;;5037595;28;20469;-72
2021/11/16 02:41:54;;;;;;;25.30;12.60;;;;;;;;;;5037869;28;20505;-72
2021/11/16 02:44:23;;;;;;;30.30;12.50;;;;;;;;;;5037912;28;20572;-72
2021/11/16 02:46:51;;;;;;;20.23;11.27;;;;;;;;;;5037964;28;20490;-72
2021/11/16 02:49:19;;;;;;;20.27;11.37;;;;;;;;;;5037388;28;20473;-72
2021/11/16 02:51:47;;;;;;;20.87;10.80;;;;;;;;;;5037781;28;20466;-72
2021/11/16 02:54:16;;;;;;;24.97;12.43;;;;;;;;;;5037102;28;20468;-71
2021/11/16 02:56:45;;;;;;;22.70;11.60;;;;;;;;;;5037664;28;20470;-72
2021/11/16 02:59:14;;;;;;;19.87;11.33;;;;;;;;;;5037821;28;20953;-71
2021/11/16 03:01:42;;;;;;;18.30;11.20;;;;;;;;;;5041304;28;20462;-72
2021/11/16 03:04:09;;;;;;;23.23;11.70;;;;;;;;;;5040495;28;20480;-72
2021/11/16 03:06:38;;;;;;;17.73;12.03;;;;;;;;;;5040445;28;20501;-72
2021/11/16 03:09:06;;;;;;;22.63;13.80;;;;;;;;;;5040570;28;20489;-72
2021/11/16 03:11:34;;;;;;;20.63;11.00;;;;;;;;;;5039889;28;20797;-72
2021/11/16 03:14:03;;;;;;;22.57;11.70;;;;;;;;;;5039665;28;20522;-72
2021/11/16 03:16:33;;;;;;;23.10;12.57;;;;;;;;;;5039345;28;20466;-72
2021/11/16 03:19:01;;;;;;;25.50;14.53;;;;;;;;;;5039515;28;20489;-71
2021/11/16 03:21:29;;;;;;;17.90;12.30;;;;;;;;;;5039241;28;20501;-72
2021/11/16 03:23:58;;;;;;;27.87;15.23;;;;;;;;;;5039720;28;20504;-72
2021/11/16 03:26:27;;;;;;;27.50;14.60;;;;;;;;;;5038787;28;20490;-72
2021/11/16 03:28:56;;;;;;;27.50;15.10;;;;;;;;;;5039662;28;20454;-72
2021/11/16 03:31:37;;;;;;;21.40;13.00;;;;;;;;;;5039245;28;20465;-72
2021/11/16 03:34:05;;;;;;;22.70;12.67;;;;;;;;;;5038633;28;20525;-72
2021/11/16 03:36:33;;;;;;;21.67;13.13;;;;;;;;;;5038586;28;20904;-72
2021/11/16 03:39:05;;;;;;;21.73;12.27;;;;;;;;;;5041152;28;20473;-72
2021/11/16 03:41:33;;;;;;;23.30;13.57;;;;;;;;;;5038635;28;20462;-72
2021/11/16 03:44:02;;;;;;;25.93;14.67;;;;;;;;;;5038758;28;20811;-72
2021/11/16 03:46:32;;;;;;;23.03;12.40;;;;;;;;;;5038513;28;20499;-72
2021/11/16 03:49:00;;;;;;;23.00;13.00;;;;;;;;;;5038825;28;20458;-72
2021/11/16 03:51:28;;;;;;;23.40;13.37;;;;;;;;;;5038105;28;20469;-71
2021/11/16 03:53:56;;;;;;;17.20;10.80;;;;;;;;;;5038474;28;20471;-72
2021/11/16 03:56:24;;;;;;;26.40;13.67;;;;;;;;;;5038683;28;20470;-71
2021/11/16 03:58:52;;;;;;;26.20;15.53;;;;;;;;;;5038335;28;20926;-71
2021/11/16 04:01:20;;;;;;;27.57;13.70;;;;;;;;;;5037339;28;20473;-71
2021/11/16 04:03:49;;;;;;;28.37;13.67;;;;;;;;;;5038601;28;20462;-71
2021/11/16 04:06:18;;;;;;;23.43;12.47;;;;;;;;;;5038057;28;20537;-71
2021/11/16 04:08:46;;;;;;;29.43;14.73;;;;;;;;;;5038184;28;20788;-71
2021/11/16 04:11:15;;;;;;;23.03;14.00;;;;;;;;;;5037851;28;20797;-71
2021/11/16 04:13:45;;;;;;;23.50;12.97;;;;;;;;;;5037654;28;20462;-71
2021/11/16 04:16:13;;;;;;;26.67;14.40;;;;;;;;;;5037785;28;20466;-71
2021/11/16 04:18:45;;;;;;;30.07;13.90;;;;;;;;;;5037583;28;20505;-71
2021/11/16 04:21:14;;;;;;;24.40;14.50;;;;;;;;;;5037300;28;20595;-71
2021/11/16 04:23:43;;;;;;;24.47;13.93;;;;;;;;;;5036743;28;20462;-71
2021/11/16 04:26:11;;;;;;;24.67;14.63;;;;;;;;;;5038107;28;20494;-72
2021/11/16 04:28:39;;;;;;;28.80;14.93;;;;;;;;;;5037913;28;20458;-71
2021/11/16 04:31:07;;;;;;;27.80;14.57;;;;;;;;;;5036964;28;20758;-71
2021/11/16 04:33:43;;;;;;;22.00;12.93;;;;;;;;;;5037842;28;20545;-71
2021/11/16 04:36:16;;;;;;;27.13;16.57;;;;;;;;;;5037096;28;20492;-71
2021/11/16 04:38:45;;;;;;;24.50;14.83;;;;;;;;;;5036202;28;20547;-71
2021/11/16 04:41:13;;;;;;;28.27;14.67;;;;;;;;;;5037112;28;20462;-71
2021/11/16 04:43:41;;;;;;;24.00;13.33;;;;;;;;;;5037716;28;20792;-70
2021/11/16 04:46:11;;;;;;;21.30;12.37;;;;;;;;;;5037607;28;20887;-70
2021/11/16 04:48:52;;;;;;;22.57;14.07;;;;;;;;;;5037397;28;20466;-71
2021/11/16 04:54:48;;;;;;;28.67;13.97;;;;;;;;;;5036857;28;20434;-71
2021/11/16 05:02:49;;;;;;;29.47;15.77;;;;;;;;;;5036991;28;20589;-71
2021/11/16 05:05:18;;;;;;;29.30;15.60;;;;;;;;;;5038260;28;20496;-71
2021/11/16 05:07:49;;;;;;;28.00;15.13;;;;;;;;;;5037109;28;20948;-71
2021/11/16 05:10:19;;;;;;;31.97;17.50;;;;;;;;;;5036696;28;20473;-71
2021/11/16 05:12:47;;;;;;;33.67;17.30;;;;;;;;;;5037606;28;20541;-71
2021/11/16 05:15:18;;;;;;;28.57;16.90;;;;;;;;;;5037496;28;20497;-71
2021/11/16 05:17:48;;;;;;;30.03;17.60;;;;;;;;;;5037083;28;20465;-71
2021/11/16 05:20:16;;;;;;;26.60;15.17;;;;;;;;;;5036833;28;20462;-71
2021/11/16 05:22:44;;;;;;;33.37;17.80;;;;;;;;;;5035957;28;20609;-71
2021/11/16 05:25:12;;;;;;;31.00;14.83;;;;;;;;;;5037043;28;21246;-71
2021/11/16 05:27:41;;;;;;;27.70;16.03;;;;;;;;;;5036284;28;20490;-72
2021/11/16 05:30:12;;;;;;;31.17;15.60;;;;;;;;;;5036833;28;20562;-72
2021/11/16 05:32:40;;;;;;;33.10;16.53;;;;;;;;;;5038497;28;20918;-72
2021/11/16 05:35:09;;;;;;;30.70;16.20;;;;;;;;;;5036637;28;20580;-72
2021/11/16 05:37:36;;;;;;;24.90;16.47;;;;;;;;;;5036706;28;21143;-72
2021/11/16 05:40:05;;;;;;;28.00;17.97;;;;;;;;;;5036814;28;20688;-71
2021/11/16 05:42:32;;;;;;;26.67;15.87;;;;;;;;;;5036660;28;20525;-71
2021/11/16 05:45:03;;;;;;;32.70;16.10;;;;;;;;;;5036428;28;20845;-72
2021/11/16 05:47:31;;;;;;;28.33;13.70;;;;;;;;;;5036296;28;20494;-71
2021/11/16 05:49:59;;;;;;;41.57;18.60;;;;;;;;;;5036892;28;20561;-71
2021/11/16 05:52:29;;;;;;;30.80;16.77;;;;;;;;;;5036017;28;20805;-72
2021/11/16 05:55:00;;;;;;;26.00;14.77;;;;;;;;;;5036326;28;20476;-72
2021/11/16 05:57:31;;;;;;;30.60;16.10;;;;;;;;;;5036363;28;20458;-72
2021/11/16 05:59:59;;;;;;;31.50;15.97;;;;;;;;;;5035376;28;20481;-72
2021/11/16 06:02:30;;;;;;;28.70;16.63;;;;;;;;;;5036450;28;20553;-72
2021/11/16 06:04:58;;;;;;;25.63;14.37;;;;;;;;;;5035318;28;20803;-72
2021/11/16 06:07:28;;;;;;;30.13;17.23;;;;;;;;;;5033988;28;20525;-73
2021/11/16 06:09:56;;;;;;;29.77;18.27;;;;;;;;;;5034915;28;20474;-72
2021/11/16 06:12:26;;;;;;;31.00;18.43;;;;;;;;;;5034847;28;20478;-72
2021/11/16 06:14:53;;;;;;;26.67;15.37;;;;;;;;;;5034836;28;20561;-72
2021/11/16 06:17:23;;;;;;;31.13;16.03;;;;;;;;;;5034394;28;20770;-72
2021/11/16 06:19:52;;;;;;;37.60;17.87;;;;;;;;;;5034137;28;20466;-71
2021/11/16 06:22:20;;;;;;;39.07;20.03;;;;;;;;;;5034025;28;20519;-71
2021/11/16 06:24:49;;;;;;;30.10;17.10;;;;;;;;;;5035001;28;20530;-71
2021/11/16 06:27:40;;;;;;;33.90;19.13;;;;;;;;;;5030746;28;20497;-73
2021/11/16 06:30:09;;;;;;;29.03;16.10;;;;;;;;;;5014349;28;20463;-71
2021/11/16 06:32:37;;;;;;;32.47;17.50;;;;;;;;;;5021249;28;20471;-71
2021/11/16 06:35:10;;;;;;;32.27;16.23;;;;;;;;;;5030212;28;20910;-71
2021/11/16 06:37:38;;;;;;;30.87;18.40;;;;;;;;;;5037065;28;20541;-72
2021/11/16 06:40:12;;;;;;;29.03;15.93;;;;;;;;;;5036572;28;20470;-72
2021/11/16 06:42:44;;;;;;;28.47;17.43;;;;;;;;;;5030738;28;20457;-72
2021/11/16 06:45:13;;;;;;;32.67;16.70;;;;;;;;;;5038754;28;20497;-71
2021/11/16 06:47:41;;;;;;;33.20;17.50;;;;;;;;;;5036927;28;20481;-73
2021/11/16 06:50:11;;;;;;;33.67;17.13;;;;;;;;;;5038348;28;20489;-71
2021/11/16 06:52:39;;;;;;;34.03;16.47;;;;;;;;;;5036911;28;20442;-71
2021/11/16 06:55:15;;;;;;;37.27;19.63;;;;;;;;;;5035891;28;20539;-72
2021/11/16 06:57:46;;;;;;;32.50;16.43;;;;;;;;;;5030833;28;20911;-72
2021/11/16 07:00:15;;;;;;;30.70;17.50;;;;;;;;;;5016424;28;20478;-71
2021/11/16 07:03:00;;;;;;;31.20;17.47;;;;;;;;;;5019990;28;20864;-72
2021/11/16 07:05:29;;;;;;;35.67;16.23;;;;;;;;;;5017346;28;20933;-71
2021/11/16 07:07:59;;;;;;;31.37;18.90;;;;;;;;;;5017830;28;20493;-72
2021/11/16 07:10:31;;;;;;;38.43;18.07;;;;;;;;;;5016813;28;20489;-72
2021/11/16 07:13:06;;;;;;;35.50;20.53;;;;;;;;;;5017116;28;20455;-71
2021/11/16 07:15:37;;;;;;;30.50;18.20;;;;;;;;;;5046239;28;20463;-72
2021/11/16 07:18:06;;;;;;;34.83;18.37;;;;;;;;;;5019027;28;20526;-72
2021/11/16 07:20:38;;;;;;;42.93;18.57;;;;;;;;;;5018244;28;20470;-72
2021/11/16 07:23:12;;;;;;;27.60;18.07;;;;;;;;;;5018881;28;20498;-72
2021/11/16 07:25:40;;;;;;;39.20;22.90;;;;;;;;;;5019387;28;20478;-72
2021/11/16 07:28:11;;;;;;;57.67;31.20;;;;;;;;;;5017951;28;20997;-71
2021/11/16 07:30:39;;;;;;;31.80;18.23;;;;;;;;;;5018504;28;20876;-71
2021/11/16 07:33:19;;;;;;;33.77;19.40;;;;;;;;;;5021335;28;21038;-71
2021/11/16 07:35:49;;;;;;;31.80;18.97;;;;;;;;;;5026439;28;20476;-71
2021/11/16 07:38:19;;;;;;;34.73;18.40;;;;;;;;;;5036925;28;20458;-72
2021/11/16 07:40:48;;;;;;;32.20;16.87;;;;;;;;;;5037600;28;20478;-72
2021/11/16 07:43:19;;;;;;;30.77;18.50;;;;;;;;;;5037162;28;20524;-72
2021/11/16 07:45:53;;;;;;;28.97;15.00;;;;;;;;;;5037325;28;20462;-72
2021/11/16 07:48:21;;;;;;;32.37;18.63;;;;;;;;;;5035814;28;20483;-72
2021/11/16 07:50:52;;;;;;;34.80;17.80;;;;;;;;;;5044240;28;20477;-72
2021/11/16 07:53:22;;;;;;;43.27;19.00;;;;;;;;;;5037496;28;20496;-71
2021/11/16 07:55:59;;;;;;;42.73;22.50;;;;;;;;;;5034981;28;20545;-71
2021/11/16 07:58:32;;;;;;;33.33;19.43;;;;;;;;;;5043843;28;20473;-71
2021/11/16 08:01:03;;;;;;;29.53;15.30;;;;;;;;;;5030780;28;20716;-72
2021/11/16 08:03:41;;;;;;;33.30;18.87;;;;;;;;;;5037159;28;20751;-71
2021/11/16 08:06:16;;;;;;;38.80;17.00;;;;;;;;;;5039793;28;20454;-72
2021/11/16 08:09:11;;;;;;;34.33;18.70;;;;;;;;;;5038098;28;20461;-72
2021/11/16 08:11:44;;;;;;;44.60;18.23;;;;;;;;;;5023698;28;20463;-72
2021/11/16 08:14:13;;;;;;;33.70;17.10;;;;;;;;;;5037535;28;20615;-71
2021/11/16 08:16:57;;;;;;;34.40;18.47;;;;;;;;;;5057948;28;20473;-72
2021/11/16 08:19:27;;;;;;;35.57;20.40;;;;;;;;;;5031293;28;20447;-72
2021/11/16 08:21:57;;;;;;;35.87;20.03;;;;;;;;;;5043494;28;20461;-72
2021/11/16 08:24:26;;;;;;;42.93;19.57;;;;;;;;;;5024945;28;20513;-72
2021/11/16 08:26:55;;;;;;;34.53;17.00;;;;;;;;;;5015298;28;20498;-73
2021/11/16 08:29:28;;;;;;;36.07;18.10;;;;;;;;;;5035429;28;20557;-72
2021/11/16 08:32:18;;;;;;;30.73;16.93;;;;;;;;;;5027203;28;20531;-72
2021/11/16 08:34:55;;;;;;;37.87;19.13;;;;;;;;;;5017457;28;20454;-72
2021/11/16 08:37:29;;;;;;;34.10;16.80;;;;;;;;;;5018694;28;20473;-72
2021/11/16 08:39:59;;;;;;;31.97;18.07;;;;;;;;;;5035138;28;20461;-72
2021/11/16 08:42:30;;;;;;;40.33;18.40;;;;;;;;;;5034939;28;20541;-72
2021/11/16 08:45:10;;;;;;;36.67;16.87;;;;;;;;;;5037815;28;20489;-71
2021/11/16 08:47:45;;;;;;;38.47;19.00;;;;;;;;;;5038340;28;20529;-75
2021/11/16 08:50:17;;;;;;;32.10;16.70;;;;;;;;;;5037523;28;20757;-71
2021/11/16 08:52:47;;;;;;;33.77;18.13;;;;;;;;;;5038027;28;20552;-72
2021/11/16 08:55:23;;;;;;;33.30;16.77;;;;;;;;;;5036536;28;20462;-71
2021/11/16 08:57:55;;;;;;;35.33;18.53;;;;;;;;;;5035542;28;20564;-72
2021/11/16 09:00:24;;;;;;;37.87;18.97;;;;;;;;;;5037350;28;20442;-71
2021/11/16 09:02:53;;;;;;;34.90;18.80;;;;;;;;;;5036784;28;20474;-72
2021/11/16 09:05:21;;;;;;;46.80;25.53;;;;;;;;;;5035770;28;20869;-70
2021/11/16 09:08:10;;;;;;;39.33;19.23;;;;;;;;;;5040980;28;20536;-72
2021/11/16 09:10:43;;;;;;;34.40;15.83;;;;;;;;;;5029330;28;20793;-72
2021/11/16 09:13:18;;;;;;;30.40;17.90;;;;;;;;;;5031773;28;20462;-71
2021/11/16 09:16:00;;;;;;;32.97;16.70;;;;;;;;;;5036044;28;20486;-71
2021/11/16 09:18:38;;;;;;;34.53;18.40;;;;;;;;;;5026105;28;20502;-70
2021/11/16 09:21:12;;;;;;;33.33;15.90;;;;;;;;;;5029293;28;20532;-70
2021/11/16 09:23:50;;;;;;;29.33;16.30;;;;;;;;;;5031184;28;20463;-70
2021/11/16 09:26:30;;;;;;;32.47;16.83;;;;;;;;;;5027407;28;20851;-71
2021/11/16 09:29:04;;;;;;;25.60;15.97;;;;;;;;;;5035294;28;20878;-73
2021/11/16 09:31:42;;;;;;;34.93;17.60;;;;;;;;;;5033969;28;20452;-72
2021/11/16 09:34:26;;;;;;;32.20;14.03;;;;;;;;;;5033522;28;20446;-70
2021/11/16 09:36:56;;;;;;;33.63;16.93;;;;;;;;;;5034544;28;20504;-71
2021/11/16 09:39:27;;;;;;;31.03;16.13;;;;;;;;;;5035854;28;20466;-72
2021/11/16 09:41:57;;;;;;;34.83;17.10;;;;;;;;;;5018323;28;20676;-71
2021/11/16 09:44:27;;;;;;;36.83;18.60;;;;;;;;;;5028275;28;20542;-71
2021/11/16 09:46:58;;;;;;;45.40;18.17;;;;;;;;;;5040581;28;20916;-71
2021/11/16 09:49:36;;;;;;;27.03;15.00;;;;;;;;;;5036361;28;20859;-72
2021/11/16 09:52:08;;;;;;;36.67;18.03;;;;;;;;;;5030256;28;20462;-71
2021/11/16 09:54:49;;;;;;;33.03;17.70;;;;;;;;;;5028836;28;20600;-71
2021/11/16 10:03:35;;;;;;;27.47;16.03;;;;;;;;;;5020886;28;20449;-71
2021/11/16 10:06:43;;;;;;;38.00;20.60;;;;;;;;;;5033830;28;20560;-71
2021/11/16 10:09:17;;;;;;;49.17;30.33;;;;;;;;;;5021814;28;20529;-71
2021/11/16 10:11:58;;;;;;;28.70;16.20;;;;;;;;;;5038231;28;20473;-71
2021/11/16 10:14:30;;;;;;;24.30;12.60;;;;;;;;;;5036047;28;20796;-70
2021/11/16 10:17:09;;;;;;;44.43;21.47;;;;;;;;;;5041511;28;21055;-71
2021/11/16 10:19:46;;;;;;;31.20;16.23;;;;;;;;;;5039964;28;20560;-71
2021/11/16 10:22:18;;;;;;;33.90;15.17;;;;;;;;;;5029762;28;20478;-71
2021/11/16 10:24:47;;;;;;;34.00;16.13;;;;;;;;;;5043166;28;20457;-71
2021/11/16 10:27:38;;;;;;;28.20;14.07;;;;;;;;;;5022724;28;20467;-71
2021/11/16 10:30:09;;;;;;;23.77;13.83;;;;;;;;;;5029755;28;20890;-71
2021/11/16 10:32:47;;;;;;;26.37;13.30;;;;;;;;;;5038153;28;20819;-70
2021/11/16 10:38:25;;;;;;;25.20;13.67;;;;;;;;;;5034892;28;20454;-72
2021/11/16 10:40:57;;;;;;;27.07;14.10;;;;;;;;;;5031709;28;20453;-72
2021/11/16 10:43:43;;;;;;;23.97;13.57;;;;;;;;;;5058341;28;20531;-71
2021/11/16 10:46:13;;;;;;;27.23;12.30;;;;;;;;;;5049019;28;20450;-72
2021/11/16 10:48:44;;;;;;;27.33;15.43;;;;;;;;;;5025068;28;20580;-71
2021/11/16 10:51:12;;;;;;;31.03;17.73;;;;;;;;;;5036858;28;20545;-71
2021/11/16 10:53:41;;;;;;;26.37;15.30;;;;;;;;;;5038364;28;20485;-72
2021/11/16 10:56:10;;;;;;;29.50;15.10;;;;;;;;;;5029671;28;20455;-72
2021/11/16 10:58:39;;;;;;;30.93;14.50;;;;;;;;;;5018509;28;20844;-71
2021/11/16 11:01:10;;;;;;;30.60;14.67;;;;;;;;;;5027117;28;21147;-70
2021/11/16 11:03:51;;;;;;;25.90;13.80;;;;;;;;;;5026577;28;20477;-71
2021/11/16 11:06:30;;;;;;;28.77;16.10;;;;;;;;;;5019444;28;20490;-71
2021/11/16 11:09:09;;;;;;;24.63;12.73;;;;;;;;;;5023441;28;20999;-72
2021/11/16 11:11:41;;;;;;;33.80;18.00;;;;;;;;;;5058647;28;20541;-71
2021/11/16 11:14:11;;;;;;;23.20;12.57;;;;;;;;;;5038887;28;20454;-72
2021/11/16 11:16:43;;;;;;;34.63;17.33;;;;;;;;;;5054872;28;20535;-71
2021/11/16 11:19:14;;;;;;;31.23;17.10;;;;;;;;;;5029669;28;20459;-72
2021/11/16 11:22:09;;;;;;;34.97;17.93;;;;;;;;;;5046879;28;20909;-72
2021/11/16 11:24:50;;;;;;;31.17;18.00;;;;;;;;;;5038653;28;20592;-71
2021/11/16 11:27:34;;;;;;;29.57;15.53;;;;;;;;;;5038542;28;20469;-71
2021/11/16 11:30:09;;;;;;;24.87;15.00;;;;;;;;;;5038042;28;20464;-70
2021/11/16 11:32:39;;;;;;;24.30;13.83;;;;;;;;;;5036525;28;20735;-71
2021/11/16 11:35:15;;;;;;;32.17;14.07;;;;;;;;;;5033090;28;20441;-71
2021/11/16 11:37:44;;;;;;;24.13;12.50;;;;;;;;;;5057642;28;20468;-71
2021/11/16 11:40:15;;;;;;;22.50;13.70;;;;;;;;;;5046808;28;20466;-71
2021/11/16 11:42:50;;;;;;;26.13;14.90;;;;;;;;;;5019074;28;20463;-71
2021/11/16 11:45:21;;;;;;;25.83;15.93;;;;;;;;;;5018463;28;20528;-71
2021/11/16 11:47:53;;;;;;;31.60;16.90;;;;;;;;;;5035164;28;20518;-71
2021/11/16 11:50:33;;;;;;;37.10;21.83;;;;;;;;;;5037598;28;20933;-70
2021/11/16 11:53:04;;;;;;;28.43;17.50;;;;;;;;;;5038923;28;20450;-71
2021/11/16 11:55:33;;;;;;;26.23;16.10;;;;;;;;;;5038274;28;20477;-71
2021/11/16 11:58:03;;;;;;;28.10;16.60;;;;;;;;;;5037753;28;20458;-72
2021/11/16 12:00:32;;;;;;;45.03;25.90;;;;;;;;;;5037341;28;20511;-71
2021/11/16 12:03:02;;;;;;;29.27;14.77;;;;;;;;;;5037322;28;20459;-71
2021/11/16 12:05:35;;;;;;;25.80;13.50;;;;;;;;;;5020247;28;20499;-70
2021/11/16 12:08:04;;;;;;;24.27;13.00;;;;;;;;;;5016941;28;20479;-70
2021/11/16 12:10:38;;;;;;;20.80;12.90;;;;;;;;;;5044098;28;20547;-71
2021/11/16 12:13:11;;;;;;;26.03;14.07;;;;;;;;;;5031111;28;20463;-71
2021/11/16 12:15:59;;;;;;;23.00;12.67;;;;;;;;;;5032464;28;20520;-71
2021/11/16 12:18:40;;;;;;;21.30;11.17;;;;;;;;;;5023707;28;20490;-71
2021/11/16 12:21:22;;;;;;;22.53;10.77;;;;;;;;;;5029709;28;20490;-71
2021/11/16 12:23:59;;;;;;;20.67;13.67;;;;;;;;;;5041295;28;20458;-70
2021/11/16 12:26:49;;;;;;;21.03;11.40;;;;;;;;;;5035664;28;21088;-72
2021/11/16 12:29:20;;;;;;;32.10;16.63;;;;;;;;;;5036529;28;20486;-72
2021/11/16 12:31:50;;;;;;;25.90;14.07;;;;;;;;;;5037051;28;20710;-71
2021/11/16 12:34:37;;;;;;;25.50;15.13;;;;;;;;;;5037319;28;20465;-71
2021/11/16 12:37:05;;;;;;;29.77;17.00;;;;;;;;;;5037990;28;20462;-71
2021/11/16 12:40:06;;;;;;;25.10;12.50;;;;;;;;;;5037420;28;20505;-72
2021/11/16 12:42:34;;;;;;;25.63;14.40;;;;;;;;;;5041785;28;21793;-71
2021/11/16 12:45:08;;;;;;;31.13;17.67;;;;;;;;;;5037655;28;20565;-71
2021/11/16 12:47:57;;;;;;;25.50;13.13;;;;;;;;;;5024032;28;20775;-71
2021/11/16 12:50:27;;;;;;;29.20;15.27;;;;;;;;;;5035270;28;20608;-72
2021/11/16 12:52:55;;;;;;;28.53;15.80;;;;;;;;;;5037865;28;20459;-72
2021/11/16 12:55:53;;;;;;;35.67;19.00;;;;;;;;;;5038001;28;20557;-72
2021/11/16 12:58:30;;;;;;;31.67;17.57;;;;;;;;;;5037223;28;20817;-72
2021/11/16 13:01:20;;;;;;;24.77;13.83;;;;;;;;;;5041650;28;20909;-72
2021/11/16 13:07:11;;;;;;;;;;;;;;;;;;;;;
2021/11/16 13:15:45;;;;;;;25.80;15.80;;;;;;;;;;5039050;28;20546;-71
2021/11/16 13:18:33;;;;;;;33.57;14.60;;;;;;;;;;5036470;28;20618;-72
2021/11/16 13:27:41;;;;;;;22.90;14.43;;;;;;;;;;5017015;28;20480;-72
2021/11/16 13:34:13;;;;;;;26.95;14.73;;;;;;;;;;4936234;29;20469;-72
2021/11/16 13:42:30;;;;;;;28.00;14.40;;;;;;;;;;5009240;28;20455;-70
2021/11/16 13:48:37;;;;;;;23.70;13.20;;;;;;;;;;4978726;28;20607;-72
2021/11/16 13:51:24;;;;;;;24.47;12.73;;;;;;;;;;5020847;28;20466;-72
2021/11/16 13:54:13;;;;;;;27.67;14.73;;;;;;;;;;5038174;28;20520;-72
2021/11/16 13:56:44;;;;;;;29.57;13.83;;;;;;;;;;5035474;28;20536;-71
2021/11/16 13:59:20;;;;;;;20.80;13.50;;;;;;;;;;5031665;28;20536;-71
2021/11/16 14:11:24;;;;;;;;;;;;;;;;;;;;;
2021/11/16 14:26:41;;;;;;;25.87;13.03;;;;;;;;;;5030429;28;20460;-71
2021/11/16 14:35:42;;;;;;;30.60;17.57;;;;;;;;;;5035059;28;20426;-72
2021/11/16 14:44:21;;;;;;;31.27;18.97;;;;;;;;;;5021518;28;20519;-72
2021/11/16 14:53:43;;;;;;;25.10;16.67;;;;;;;;;;5028714;28;20504;-72
2021/11/16 14:56:38;;;;;;;29.07;15.93;;;;;;;;;;5016157;28;20451;-71
2021/11/16 14:59:14;;;;;;;25.90;14.13;;;;;;;;;;5036250;28;20964;-71
2021/11/16 15:02:04;;;;;;;32.17;15.47;;;;;;;;;;5039787;28;20478;-72
2021/11/16 15:07:52;;;;;;;29.47;16.63;;;;;;;;;;5011782;28;20446;-72
2021/11/16 15:10:38;;;;;;;24.60;14.97;;;;;;;;;;5016922;28;20957;-72
2021/11/16 15:13:18;;;;;;;31.93;16.53;;;;;;;;;;5024136;28;20466;-72
2021/11/16 15:15:56;;;;;;;28.27;13.70;;;;;;;;;;5036737;28;20461;-72
2021/11/16 15:18:27;;;;;;;27.13;15.80;;;;;;;;;;5039180;28;20450;-71
2021/11/16 15:21:25;;;;;;;26.63;16.03;;;;;;;;;;5036474;28;20772;-74
2021/11/16 15:24:24;;;;;;;32.63;16.13;;;;;;;;;;5045330;28;20473;-71
2021/11/16 15:27:36;;;;;;;36.27;18.17;;;;;;;;;;5054686;28;20457;-74
2021/11/16 15:30:07;;;;;;;30.90;17.93;;;;;;;;;;5056060;28;20508;-72
2021/11/16 15:32:38;;;;;;;25.13;13.37;;;;;;;;;;5059097;28;20461;-72
2021/11/16 15:35:37;;;;;;;;;;;;;;;;;;;;;
2021/11/16 15:38:06;;;;;;;36.90;16.63;;;;;;;;;;5033379;28;20480;-72
2021/11/16 15:40:40;;;;;;;30.73;15.60;;;;;;;;;;5037110;28;20458;-72
2021/11/16 15:43:31;;;;;;;29.57;15.63;;;;;;;;;;5036126;28;20790;-72
2021/11/16 15:46:09;;;;;;;35.83;18.60;;;;;;;;;;5036899;28;20451;-73
2021/11/16 15:48:50;;;;;;;29.47;15.40;;;;;;;;;;5036112;28;20458;-73
2021/11/16 15:59:40;;;;;;;28.43;14.23;;;;;;;;;;5035415;28;20433;-72
2021/11/16 16:02:35;;;;;;;30.13;14.53;;;;;;;;;;5036960;28;20449;-72
2021/11/16 16:05:17;;;;;;;28.97;14.13;;;;;;;;;;5016855;28;20551;-71
2021/11/16 16:07:56;;;;;;;34.57;16.10;;;;;;;;;;5015544;28;20851;-72
2021/11/16 16:10:30;;;;;;;26.27;13.47;;;;;;;;;;5027172;28;20482;-72
2021/11/16 16:13:10;;;;;;;27.03;16.10;;;;;;;;;;5035143;28;20809;-72
2021/11/16 16:15:40;;;;;;;25.70;14.20;;;;;;;;;;5035934;28;20534;-73
2021/11/16 16:18:19;;;;;;;32.10;17.40;;;;;;;;;;5035591;28;20452;-73
2021/11/16 16:20:53;;;;;;;23.37;14.63;;;;;;;;;;5035392;28;20458;-73
2021/11/16 16:23:28;;;;;;;32.47;16.50;;;;;;;;;;5036133;28;20508;-73
2021/11/16 16:26:00;;;;;;;32.37;18.27;;;;;;;;;;5035423;28;20458;-74
2021/11/16 16:28:32;;;;;;;28.77;14.00;;;;;;;;;;5034677;28;20962;-74
2021/11/16 16:31:01;;;;;;;26.43;13.60;;;;;;;;;;5034984;28;20560;-74
2021/11/16 16:33:29;;;;;;;23.00;12.30;;;;;;;;;;5034189;28;20447;-74